createdAt,value
2022-11-05T00:02:25.418Z,32.92
2022-11-05T00:07:50.769Z,36.28
2022-11-05T00:13:21.234Z,36.90
2022-11-05T00:18:24.274Z,35.13
2022-11-05T00:23:46.545Z,35.00
2022-11-05T00:28:49.262Z,38.45
2022-11-05T00:33:52.020Z,37.65
2022-11-05T00:38:56.088Z,39.40
2022-11-05T00:44:16.560Z,39.90
2022-11-05T00:49:31.178Z,40.83
2022-11-05T00:54:35.242Z,37.13
2022-11-05T00:59:37.950Z,36.97
2022-11-05T01:04:40.657Z,38.00
2022-11-05T01:09:44.719Z,39.58
2022-11-05T01:14:47.488Z,38.08
2022-11-05T01:19:51.233Z,25.27
2022-11-05T01:24:55.408Z,14.07
2022-11-05T01:29:58.138Z,9.88
2022-11-05T01:35:00.912Z,10.13
2022-11-05T01:40:05.964Z,11.20
2022-11-05T01:45:14.453Z,9.18
2022-11-05T01:50:28.113Z,9.30
2022-11-05T01:55:36.474Z,9.88
2022-11-05T02:00:41.073Z,8.48
2022-11-05T02:05:44.701Z,7.00
2022-11-05T02:10:49.544Z,6.40
2022-11-05T02:16:02.506Z,7.00
2022-11-05T02:21:27.367Z,6.18
2022-11-05T02:27:01.013Z,5.93
2022-11-05T02:32:09.709Z,5.20
2022-11-05T02:37:18.836Z,5.13
2022-11-05T02:42:31.639Z,4.88
2022-11-05T02:47:43.856Z,4.18
2022-11-05T02:52:54.629Z,5.15
2022-11-05T02:57:59.698Z,5.07
2022-11-05T03:03:05.816Z,4.80
2022-11-05T03:08:16.796Z,4.90
2022-11-05T03:13:27.259Z,4.97
2022-11-05T03:18:40.798Z,4.68
2022-11-05T03:23:48.049Z,4.97
2022-11-05T03:34:03.949Z,6.55
2022-11-05T03:39:09.766Z,6.85
2022-11-05T03:44:16.693Z,8.75
2022-11-05T03:49:26.523Z,8.82
2022-11-05T03:54:29.959Z,10.55
2022-11-05T03:59:39.238Z,11.52
2022-11-05T04:04:43.603Z,13.48
2022-11-05T04:10:03.871Z,16.10
2022-11-05T04:15:07.868Z,17.77
2022-11-05T04:25:57.071Z,19.40
2022-11-05T04:30:59.905Z,23.42
2022-11-05T04:36:04.016Z,25.38
2022-11-05T04:41:14.593Z,25.80
2022-11-05T04:46:17.557Z,25.05
2022-11-05T04:51:22.842Z,24.02
2022-11-05T04:56:26.540Z,23.80
2022-11-05T05:01:29.515Z,23.92
2022-11-05T05:06:33.648Z,23.58
2022-11-05T05:11:36.591Z,24.73
2022-11-05T05:16:39.683Z,23.63
2022-11-05T05:21:43.746Z,26.00
2022-11-05T05:26:49.077Z,24.38
2022-11-05T05:31:51.896Z,23.88
2022-11-05T05:36:55.979Z,24.65
2022-11-05T05:41:58.685Z,26.48
2022-11-05T05:47:01.465Z,26.10
2022-11-05T05:52:06.149Z,25.48
2022-11-05T05:57:08.869Z,26.15
2022-11-05T06:02:12.567Z,24.23
2022-11-05T06:07:16.782Z,24.10
2022-11-05T06:12:19.589Z,23.10
2022-11-05T06:17:22.689Z,22.48
2022-11-05T06:22:26.775Z,21.90
2022-11-05T06:27:29.706Z,23.38
2022-11-05T06:32:32.768Z,25.15
2022-11-05T06:37:36.915Z,35.28
2022-11-05T06:42:42.326Z,29.45
2022-11-05T06:47:45.028Z,27.50
2022-11-05T06:52:55.635Z,25.27
2022-11-05T06:57:58.691Z,26.27
2022-11-05T07:03:05.196Z,25.90
2022-11-05T07:08:09.350Z,27.03
2022-11-05T07:13:13.024Z,26.92
2022-11-05T07:18:16.593Z,26.80
2022-11-05T07:23:20.749Z,26.92
2022-11-05T07:28:23.636Z,25.98
2022-11-05T07:33:26.345Z,27.52
2022-11-05T07:38:30.634Z,27.80
2022-11-05T07:43:33.363Z,27.15
2022-11-05T07:48:37.284Z,26.75
2022-11-05T07:53:45.294Z,26.67
2022-11-05T07:58:48.415Z,28.00
2022-11-05T08:03:51.163Z,27.73
2022-11-05T08:08:55.236Z,30.27
2022-11-05T08:13:57.967Z,26.40
2022-11-05T08:19:00.756Z,25.42
2022-11-05T08:24:05.264Z,40.58
2022-11-05T08:29:07.998Z,27.02
2022-11-05T08:34:10.693Z,26.15
2022-11-05T08:39:17.082Z,30.67
2022-11-05T08:44:19.971Z,22.80
2022-11-05T08:49:22.856Z,23.77
2022-11-05T08:54:27.698Z,19.70
2022-11-05T08:59:31.385Z,12.50
2022-11-05T09:04:34.153Z,12.55
2022-11-05T09:09:38.265Z,10.48
2022-11-05T09:14:41.087Z,8.27
2022-11-05T09:19:43.956Z,9.88
2022-11-05T09:24:48.113Z,7.43
2022-11-05T09:29:50.824Z,7.00
2022-11-05T09:34:54.500Z,7.13
2022-11-05T09:39:58.918Z,7.45
2022-11-05T09:45:04.539Z,5.35
2022-11-05T09:50:10.624Z,6.13
2022-11-05T09:55:24.561Z,6.20
2022-11-05T10:00:27.903Z,6.32
2022-11-05T10:05:33.801Z,6.13
2022-11-05T10:10:43.099Z,6.70
2022-11-05T10:15:54.988Z,7.10
2022-11-05T10:20:58.608Z,6.25
2022-11-05T10:26:05.557Z,6.68
2022-11-05T10:31:11.310Z,5.13
2022-11-05T10:36:29.693Z,6.28
2022-11-05T10:41:45.663Z,4.07
2022-11-05T10:46:59.403Z,4.93
2022-11-05T10:52:13.126Z,5.32
2022-11-05T10:57:31.872Z,4.50
2022-11-05T11:02:36.753Z,4.93
2022-11-05T11:07:39.623Z,4.07
2022-11-05T11:12:44.379Z,4.07
2022-11-05T11:17:47.662Z,4.88
2022-11-05T11:23:05.306Z,4.47
2022-11-05T11:28:18.943Z,4.25
2022-11-05T11:33:28.205Z,3.40
2022-11-05T11:38:32.516Z,2.80
2022-11-05T11:43:39.929Z,2.50
2022-11-05T11:48:43.292Z,3.63
2022-11-05T11:53:49.219Z,2.60
2022-11-05T11:58:54.911Z,3.45
2022-11-05T12:04:04.719Z,2.78
2022-11-05T12:09:18.313Z,3.90
2022-11-05T12:14:40.210Z,2.58
2022-11-05T12:20:12.446Z,3.13
2022-11-05T12:25:22.636Z,3.83
2022-11-05T12:30:27.618Z,3.78
2022-11-05T12:35:57.795Z,3.35
2022-11-05T12:41:20.919Z,4.10
2022-11-05T12:46:35.217Z,3.00
2022-11-05T12:51:50.576Z,3.50
2022-11-05T12:56:57.632Z,4.28
2022-11-05T13:02:08.104Z,6.43
2022-11-05T13:07:15.106Z,5.90
2022-11-05T13:12:22.762Z,4.30
2022-11-05T13:17:30.562Z,6.07
2022-11-05T13:22:40.469Z,4.30
2022-11-05T13:27:54.636Z,6.95
2022-11-05T13:33:02.467Z,4.43
2022-11-05T13:38:27.324Z,4.38
2022-11-05T13:43:57.356Z,3.33
2022-11-05T13:49:17.554Z,3.47
2022-11-05T13:55:00.166Z,4.28
2022-11-05T14:00:11.387Z,4.28
2022-11-05T14:05:26.375Z,7.07
2022-11-05T14:10:35.928Z,3.42
2022-11-05T14:15:38.798Z,4.95
2022-11-05T14:20:59.496Z,5.00
2022-11-05T14:26:15.984Z,7.05
2022-11-05T14:32:09.906Z,6.07
2022-11-05T14:37:23.153Z,20.75
2022-11-05T14:42:28.867Z,4.55
2022-11-05T14:47:34.435Z,3.92
2022-11-05T14:52:41.392Z,18.95
2022-11-05T14:58:06.438Z,5.55
2022-11-05T15:03:32.580Z,5.68
2022-11-05T15:08:56.257Z,6.35
2022-11-05T15:14:05.650Z,3.13
2022-11-05T15:19:18.753Z,3.90
2022-11-05T15:24:23.311Z,5.68
2022-11-05T15:29:30.335Z,4.20
2022-11-05T15:34:35.558Z,23.90
2022-11-05T15:39:43.039Z,39.60
2022-11-05T15:44:47.273Z,12.48
2022-11-05T15:49:52.927Z,4.78
2022-11-05T15:55:18.576Z,3.80
2022-11-05T16:00:24.165Z,4.25
2022-11-05T16:05:29.290Z,11.55
2022-11-05T16:10:35.547Z,3.33
2022-11-05T16:15:38.301Z,8.45
2022-11-05T16:20:41.181Z,5.38
2022-11-05T16:25:47.166Z,5.68
2022-11-05T16:30:55.338Z,8.30
2022-11-05T16:35:58.336Z,6.03
2022-11-05T16:41:02.896Z,5.90
2022-11-05T16:46:05.955Z,6.68
2022-11-05T16:51:10.297Z,8.70
2022-11-05T16:56:18.162Z,7.03
2022-11-05T17:01:23.659Z,5.00
2022-11-05T17:06:26.426Z,4.60
2022-11-05T17:11:30.688Z,5.43
2022-11-05T17:16:33.451Z,12.70
2022-11-05T17:21:36.623Z,5.93
2022-11-05T17:26:40.944Z,5.55
2022-11-05T17:31:43.781Z,5.93
2022-11-05T17:36:49.136Z,7.15
2022-11-05T17:41:55.975Z,5.82
2022-11-05T17:46:58.712Z,6.63
2022-11-05T17:52:01.617Z,6.10
2022-11-05T17:57:07.173Z,7.05
2022-11-05T18:02:12.001Z,6.22
2022-11-05T18:07:15.151Z,5.32
2022-11-05T18:12:19.336Z,7.35
2022-11-05T18:17:22.357Z,6.95
2022-11-05T18:22:26.590Z,7.03
2022-11-05T18:27:30.763Z,6.43
2022-11-05T18:32:34.013Z,7.32
2022-11-05T18:37:38.714Z,8.70
2022-11-05T18:42:43.049Z,6.57
2022-11-05T18:47:45.753Z,7.35
2022-11-05T18:52:48.458Z,6.03
2022-11-05T18:57:53.462Z,7.72
2022-11-05T19:02:56.652Z,7.72
2022-11-05T19:07:59.733Z,7.57
2022-11-05T19:13:03.972Z,6.32
2022-11-05T19:18:06.990Z,8.10
2022-11-05T19:23:10.093Z,8.25
2022-11-05T19:28:14.490Z,7.65
2022-11-05T19:33:17.711Z,7.63
2022-11-05T19:38:20.409Z,7.10
2022-11-05T19:43:24.622Z,7.00
2022-11-05T19:48:29.217Z,7.28
2022-11-05T19:53:31.938Z,7.88
2022-11-05T19:58:36.368Z,6.90
2022-11-05T20:03:40.326Z,7.28
2022-11-05T20:09:07.026Z,8.93
2022-11-05T20:14:10.907Z,17.25
2022-11-05T20:19:16.583Z,12.45
2022-11-05T20:24:25.149Z,10.60
2022-11-05T20:29:35.231Z,8.90
2022-11-05T20:34:39.164Z,8.75
2022-11-05T20:39:42.168Z,9.32
2022-11-05T20:44:46.233Z,14.23
2022-11-05T20:49:48.981Z,8.13
2022-11-05T20:54:51.900Z,9.00
2022-11-05T20:59:56.086Z,9.60
2022-11-05T21:04:58.840Z,9.80
2022-11-05T21:10:02.305Z,8.43
2022-11-05T21:15:08.478Z,8.00
2022-11-05T21:20:11.641Z,8.75
2022-11-05T21:25:17.861Z,8.45
2022-11-05T21:30:22.426Z,8.90
2022-11-05T21:35:25.310Z,9.40
2022-11-05T21:40:34.540Z,13.23
2022-11-05T21:45:40.737Z,9.82
2022-11-05T21:50:57.615Z,9.32
2022-11-05T21:56:26.163Z,10.27
2022-11-05T22:01:31.396Z,12.10
2022-11-05T22:06:34.609Z,13.00
2022-11-05T22:11:37.815Z,13.93
2022-11-05T22:16:41.944Z,34.08
2022-11-05T22:21:45.700Z,23.15
2022-11-05T22:26:48.617Z,23.17
2022-11-05T22:31:52.830Z,13.90
2022-11-05T22:36:55.856Z,10.55
2022-11-05T22:42:02.034Z,16.25
2022-11-05T22:47:09.774Z,26.15
2022-11-05T22:52:13.366Z,14.75
2022-11-05T22:57:16.395Z,12.10
2022-11-05T23:02:20.695Z,10.80
2022-11-05T23:07:41.306Z,10.98
2022-11-05T23:12:44.605Z,11.90
2022-11-05T23:18:06.245Z,12.05
2022-11-05T23:23:37.349Z,11.75
2022-11-05T23:28:40.062Z,11.40
2022-11-05T23:33:46.647Z,10.95
2022-11-05T23:38:49.393Z,11.70
2022-11-05T23:44:09.678Z,10.65
2022-11-05T23:49:14.071Z,10.63
2022-11-05T23:54:16.841Z,10.55
2022-11-05T23:59:19.553Z,10.77
